createdAt,value
2022-08-11T00:00:10.684Z,15.52
2022-08-11T00:01:11.046Z,15.51
2022-08-11T00:02:14.513Z,15.49
2022-08-11T00:03:11.880Z,15.49
2022-08-11T00:04:12.133Z,15.47
2022-08-11T00:05:12.489Z,15.46
2022-08-11T00:06:12.832Z,15.47
2022-08-11T00:07:13.193Z,15.46
2022-08-11T00:08:13.547Z,15.46
2022-08-11T00:09:13.913Z,15.47
2022-08-11T00:10:14.288Z,15.46
2022-08-11T00:11:14.644Z,15.47
2022-08-11T00:12:15.032Z,15.49
2022-08-11T00:13:15.383Z,15.47
2022-08-11T00:14:15.726Z,15.49
2022-08-11T00:15:16.116Z,15.44
2022-08-11T00:16:16.463Z,15.43
2022-08-11T00:17:16.820Z,15.40
2022-08-11T00:18:17.255Z,15.37
2022-08-11T00:19:17.555Z,15.33
2022-08-11T00:20:17.940Z,15.28
2022-08-11T00:21:18.244Z,15.22
2022-08-11T00:22:18.635Z,15.19
2022-08-11T00:23:19.032Z,15.17
2022-08-11T00:24:19.330Z,15.11
2022-08-11T00:25:19.714Z,15.09
2022-08-11T00:26:20.050Z,15.09
2022-08-11T00:27:20.408Z,15.10
2022-08-11T00:28:20.748Z,15.10
2022-08-11T00:29:21.155Z,15.10
2022-08-11T00:30:21.476Z,15.09
2022-08-11T00:31:21.819Z,15.06
2022-08-11T00:32:22.191Z,15.03
2022-08-11T00:33:22.561Z,15.02
2022-08-11T00:34:22.918Z,14.99
2022-08-11T00:35:51.968Z,14.94
2022-08-11T00:36:25.696Z,14.92
2022-08-11T00:37:24.001Z,14.91
2022-08-11T00:38:24.354Z,14.89
2022-08-11T00:39:28.726Z,14.86
2022-08-11T00:40:25.080Z,14.82
2022-08-11T00:41:25.439Z,14.84
2022-08-11T00:42:25.786Z,14.84
2022-08-11T00:43:26.162Z,14.86
2022-08-11T00:44:26.533Z,14.89
2022-08-11T00:45:26.891Z,14.89
2022-08-11T00:46:27.272Z,14.92
2022-08-11T00:47:27.598Z,14.92
2022-08-11T00:48:27.956Z,14.91
2022-08-11T00:49:28.361Z,14.91
2022-08-11T00:50:28.672Z,14.92
2022-08-11T00:51:29.030Z,14.91
2022-08-11T00:52:29.443Z,14.86
2022-08-11T00:53:29.753Z,14.85
2022-08-11T00:54:30.147Z,14.81
2022-08-11T00:55:30.466Z,14.73
2022-08-11T00:56:30.819Z,14.70
2022-08-11T00:57:36.991Z,14.68
2022-08-11T00:58:31.836Z,14.66
2022-08-11T00:59:35.263Z,14.63
2022-08-11T01:00:32.380Z,14.62
2022-08-11T01:01:32.741Z,14.60
2022-08-11T01:02:33.012Z,14.62
2022-08-11T01:03:33.370Z,14.63
2022-08-11T01:04:33.735Z,14.66
2022-08-11T01:05:34.088Z,14.70
2022-08-11T01:06:34.440Z,14.70
2022-08-11T01:08:02.692Z,14.72
2022-08-11T01:08:35.158Z,14.72
2022-08-11T01:09:35.535Z,14.73
2022-08-11T01:10:35.873Z,14.77
2022-08-11T01:11:36.230Z,14.73
2022-08-11T01:12:36.803Z,14.70
2022-08-11T01:13:36.986Z,14.66
2022-08-11T01:14:37.338Z,14.65
2022-08-11T01:15:37.689Z,14.62
2022-08-11T01:16:38.043Z,14.60
2022-08-11T01:17:38.493Z,14.62
2022-08-11T01:18:38.760Z,14.62
2022-08-11T01:20:45.573Z,14.62
2022-08-11T01:20:52.720Z,14.62
2022-08-11T01:21:39.903Z,14.62
2022-08-11T01:22:40.255Z,14.63
2022-08-11T01:23:40.626Z,14.63
2022-08-11T01:24:41.000Z,14.66
2022-08-11T01:25:56.782Z,14.66
2022-08-11T01:26:41.735Z,14.69
2022-08-11T01:27:42.082Z,14.63
2022-08-11T01:28:42.439Z,14.62
2022-08-11T01:29:42.798Z,14.59
2022-08-11T01:30:43.142Z,14.53
2022-08-11T01:31:43.477Z,14.51
2022-08-11T01:32:43.973Z,14.48
2022-08-11T01:33:44.174Z,14.45
2022-08-11T01:34:44.543Z,14.43
2022-08-11T01:35:44.889Z,14.40
2022-08-11T01:36:45.251Z,14.36
2022-08-11T01:37:45.601Z,14.33
2022-08-11T01:38:45.954Z,14.29
2022-08-11T01:39:46.441Z,14.29
2022-08-11T01:40:46.683Z,14.25
2022-08-11T01:41:47.023Z,14.25
2022-08-11T01:42:47.368Z,14.20
2022-08-11T01:43:47.765Z,14.17
2022-08-11T01:44:48.104Z,14.12
2022-08-11T01:45:48.454Z,14.11
2022-08-11T01:46:48.806Z,14.10
2022-08-11T01:47:53.275Z,14.12
2022-08-11T01:48:49.514Z,14.14
2022-08-11T01:50:09.310Z,14.17
2022-08-11T01:50:50.301Z,14.17
2022-08-11T01:51:50.730Z,14.20
2022-08-11T01:52:50.957Z,14.20
2022-08-11T01:53:51.303Z,14.22
2022-08-11T01:54:51.688Z,14.26
2022-08-11T01:55:52.026Z,14.26
2022-08-11T01:56:52.405Z,14.23
2022-08-11T01:57:52.756Z,14.23
2022-08-11T01:58:53.126Z,14.23
2022-08-11T01:59:53.521Z,14.22
2022-08-11T02:00:53.860Z,14.20
2022-08-11T02:01:54.193Z,14.18
2022-08-11T02:02:54.571Z,14.15
2022-08-11T02:03:54.913Z,14.11
2022-08-11T02:04:55.290Z,14.11
2022-08-11T02:05:55.633Z,14.10
2022-08-11T02:06:56.014Z,14.08
2022-08-11T02:07:56.365Z,14.07
2022-08-11T02:08:56.748Z,14.07
2022-08-11T02:09:57.102Z,14.07
2022-08-11T02:10:57.540Z,14.04
2022-08-11T02:11:57.837Z,14.03
2022-08-11T02:12:58.210Z,14.00
2022-08-11T02:13:58.575Z,13.99
2022-08-11T02:15:05.322Z,14.00
2022-08-11T02:15:59.285Z,13.97
2022-08-11T02:16:59.638Z,13.96
2022-08-11T02:17:59.987Z,13.95
2022-08-11T02:19:00.372Z,13.92
2022-08-11T02:20:00.733Z,13.92
2022-08-11T02:21:01.086Z,13.92
2022-08-11T02:22:01.465Z,13.92
2022-08-11T02:23:01.818Z,13.89
2022-08-11T02:24:07.050Z,13.87
2022-08-11T02:25:02.606Z,13.87
2022-08-11T02:26:02.925Z,13.85
2022-08-11T02:27:03.306Z,13.85
2022-08-11T02:28:03.659Z,13.81
2022-08-11T02:29:04.018Z,13.78
2022-08-11T02:30:04.458Z,13.75
2022-08-11T02:31:04.822Z,13.71
2022-08-11T02:32:24.473Z,13.68
2022-08-11T02:33:05.472Z,13.67
2022-08-11T02:34:05.806Z,13.67
2022-08-11T02:35:06.171Z,13.65
2022-08-11T02:36:06.537Z,13.65
2022-08-11T02:37:06.874Z,13.62
2022-08-11T02:38:07.224Z,13.60
2022-08-11T02:39:07.603Z,13.62
2022-08-11T02:40:07.975Z,13.62
2022-08-11T02:41:08.381Z,13.60
2022-08-11T02:42:08.639Z,13.59
2022-08-11T02:43:09.041Z,13.56
2022-08-11T02:44:09.353Z,13.54
2022-08-11T02:45:09.723Z,13.54
2022-08-11T02:46:18.215Z,13.57
2022-08-11T02:47:10.422Z,13.59
2022-08-11T02:48:10.785Z,13.62
2022-08-11T02:49:11.150Z,13.62
2022-08-11T02:50:11.533Z,13.63
2022-08-11T02:51:11.918Z,13.63
2022-08-11T02:52:12.221Z,13.63
2022-08-11T02:53:12.572Z,13.67
2022-08-11T02:54:12.913Z,13.65
2022-08-11T02:55:48.814Z,13.67
2022-08-11T02:56:13.644Z,13.63
2022-08-11T02:57:14.064Z,13.65
2022-08-11T02:58:14.389Z,13.67
2022-08-11T02:59:14.743Z,13.67
2022-08-11T03:00:15.152Z,13.68
2022-08-11T03:01:15.499Z,13.68
2022-08-11T03:02:16.786Z,13.70
2022-08-11T03:03:16.251Z,13.70
2022-08-11T03:04:16.549Z,13.71
2022-08-11T03:05:16.917Z,13.75
2022-08-11T03:06:17.278Z,13.74
2022-08-11T03:07:28.057Z,13.75
2022-08-11T03:08:18.179Z,13.75
2022-08-11T03:09:18.423Z,13.75
2022-08-11T03:10:18.940Z,13.75
2022-08-11T03:11:19.194Z,13.75
2022-08-11T03:12:19.368Z,13.77
2022-08-11T03:13:19.655Z,13.78
2022-08-11T03:14:19.939Z,13.77
2022-08-11T03:15:20.339Z,13.77
2022-08-11T03:16:20.509Z,13.71
2022-08-11T03:17:20.921Z,13.71
2022-08-11T03:18:21.042Z,13.68
2022-08-11T03:19:21.326Z,13.65
2022-08-11T03:20:21.650Z,13.62
2022-08-11T03:21:21.938Z,13.60
2022-08-11T03:22:22.082Z,13.62
2022-08-11T03:23:22.274Z,13.65
2022-08-11T03:24:22.423Z,13.68
2022-08-11T03:25:22.765Z,13.70
2022-08-11T03:26:22.917Z,13.71
2022-08-11T03:27:23.176Z,13.71
2022-08-11T03:28:23.352Z,13.70
2022-08-11T03:29:25.090Z,13.70
2022-08-11T03:30:23.706Z,13.67
2022-08-11T03:31:23.902Z,13.65
2022-08-11T03:32:24.065Z,13.65
2022-08-11T03:33:24.342Z,13.63
2022-08-11T03:34:24.520Z,13.62
2022-08-11T03:35:24.863Z,13.62
2022-08-11T03:36:24.991Z,13.59
2022-08-11T03:37:25.165Z,13.56
2022-08-11T03:38:30.721Z,13.53
2022-08-11T03:39:25.693Z,13.50
2022-08-11T03:40:26.042Z,13.49
2022-08-11T03:42:03.737Z,13.52
2022-08-11T03:42:26.498Z,13.50
2022-08-11T03:43:26.789Z,13.49
2022-08-11T03:44:27.070Z,13.49
2022-08-11T03:45:27.344Z,13.49
2022-08-11T03:46:27.542Z,13.49
2022-08-11T03:47:27.714Z,13.47
2022-08-11T03:48:28.017Z,13.47
2022-08-11T03:49:28.314Z,13.47
2022-08-11T03:50:28.664Z,13.49
2022-08-11T03:51:44.850Z,13.49
2022-08-11T03:52:29.114Z,13.47
2022-08-11T03:53:29.253Z,13.47
2022-08-11T03:54:29.432Z,13.44
2022-08-11T03:55:29.662Z,13.42
2022-08-11T03:56:29.803Z,13.39
2022-08-11T03:57:29.955Z,13.38
2022-08-11T03:58:30.165Z,13.35
2022-08-11T03:59:30.299Z,13.31
2022-08-11T04:00:30.510Z,13.27
2022-08-11T04:01:30.811Z,13.22
2022-08-11T04:02:30.927Z,13.20
2022-08-11T04:03:31.681Z,13.19
2022-08-11T04:04:31.286Z,13.20
2022-08-11T04:05:31.467Z,13.22
2022-08-11T04:06:31.625Z,13.18
2022-08-11T04:07:31.805Z,13.16
2022-08-11T04:08:34.280Z,13.15
2022-08-11T04:09:32.286Z,13.15
2022-08-11T04:10:32.485Z,13.13
2022-08-11T04:11:32.657Z,13.12
2022-08-11T04:12:36.455Z,13.12
2022-08-11T04:13:32.980Z,13.13
2022-08-11T04:14:33.139Z,13.16
2022-08-11T04:15:33.329Z,13.16
2022-08-11T04:16:33.485Z,13.18
2022-08-11T04:17:35.093Z,13.18
2022-08-11T04:18:33.830Z,13.18
2022-08-11T04:19:34.010Z,13.20
2022-08-11T04:20:34.291Z,13.23
2022-08-11T04:21:34.362Z,13.28
2022-08-11T04:22:34.578Z,13.38
2022-08-11T04:24:36.060Z,13.41
2022-08-11T04:24:47.031Z,13.42
2022-08-11T04:25:35.246Z,13.44
2022-08-11T04:26:35.353Z,13.46
2022-08-11T04:27:37.645Z,13.54
2022-08-11T04:28:42.877Z,13.60
2022-08-11T04:30:03.365Z,13.59
2022-08-11T04:30:40.436Z,13.65
2022-08-11T04:31:50.452Z,13.79
2022-08-11T04:32:36.742Z,13.89
2022-08-11T04:33:36.717Z,13.87
2022-08-11T04:34:36.912Z,13.85
2022-08-11T04:35:37.100Z,13.86
2022-08-11T04:36:37.325Z,13.90
2022-08-11T04:37:37.417Z,13.92
2022-08-11T04:38:37.621Z,13.96
2022-08-11T04:39:37.864Z,14.04
2022-08-11T04:40:37.990Z,14.18
2022-08-11T04:41:38.133Z,14.60
2022-08-11T04:42:38.483Z,15.09
2022-08-11T04:43:38.496Z,15.47
2022-08-11T04:44:38.877Z,15.84
2022-08-11T04:45:38.873Z,16.16
2022-08-11T04:46:39.068Z,16.41
2022-08-11T04:48:01.772Z,16.61
2022-08-11T04:48:39.523Z,16.91
2022-08-11T04:49:40.001Z,17.22
2022-08-11T04:50:39.928Z,17.38
2022-08-11T04:51:40.254Z,17.48
2022-08-11T04:52:40.677Z,17.59
2022-08-11T04:53:40.595Z,17.60
2022-08-11T04:54:41.805Z,17.79
2022-08-11T04:55:41.080Z,17.98
2022-08-11T04:56:41.252Z,18.20
2022-08-11T04:57:41.426Z,18.33
2022-08-11T04:58:41.595Z,18.33
2022-08-11T04:59:41.774Z,18.41
2022-08-11T05:00:41.979Z,18.59
2022-08-11T05:01:42.322Z,18.74
2022-08-11T05:02:42.386Z,18.90
2022-08-11T05:03:42.604Z,19.08
2022-08-11T05:04:42.786Z,19.29
2022-08-11T05:05:56.551Z,19.39
2022-08-11T05:06:43.147Z,19.52
2022-08-11T05:07:43.334Z,19.63
2022-08-11T05:08:43.534Z,19.86
2022-08-11T05:09:43.709Z,20.07
2022-08-11T05:10:43.924Z,20.24
2022-08-11T05:11:44.144Z,20.52
2022-08-11T05:12:44.304Z,20.77
2022-08-11T05:13:45.307Z,20.87
2022-08-11T05:14:44.685Z,21.00
2022-08-11T05:15:49.519Z,21.20
2022-08-11T05:16:45.050Z,21.39
2022-08-11T05:17:45.933Z,21.58
2022-08-11T05:18:45.435Z,21.51
2022-08-11T05:19:45.617Z,21.35
2022-08-11T05:20:45.827Z,21.25
2022-08-11T05:21:46.026Z,21.17
2022-08-11T05:22:46.218Z,21.09
2022-08-11T05:23:46.396Z,21.22
2022-08-11T05:24:46.571Z,21.32
2022-08-11T05:26:45.531Z,21.40
2022-08-11T05:26:52.722Z,21.45
2022-08-11T05:27:47.183Z,21.43
2022-08-11T05:28:47.323Z,21.46
2022-08-11T05:29:47.490Z,21.36
2022-08-11T05:30:47.680Z,21.39
2022-08-11T05:31:47.865Z,21.35
2022-08-11T05:32:48.085Z,21.21
2022-08-11T05:33:48.229Z,21.17
2022-08-11T05:34:48.435Z,21.21
2022-08-11T05:36:01.404Z,21.25
2022-08-11T05:36:48.836Z,21.50
2022-08-11T05:37:49.024Z,21.76
2022-08-11T05:38:49.248Z,21.95
2022-08-11T05:39:49.428Z,21.99
2022-08-11T05:40:51.163Z,22.11
2022-08-11T05:41:49.790Z,22.04
2022-08-11T05:42:49.975Z,21.93
2022-08-11T05:44:21.203Z,21.75
2022-08-11T05:44:50.379Z,21.57
2022-08-11T05:46:03.204Z,21.42
2022-08-11T05:46:50.793Z,21.42
2022-08-11T05:47:50.939Z,21.83
2022-08-11T05:48:51.128Z,22.17
2022-08-11T05:49:51.306Z,22.30
2022-08-11T05:50:51.496Z,22.38
2022-08-11T05:51:54.885Z,22.53
2022-08-11T05:52:56.528Z,22.65
2022-08-11T05:53:52.065Z,22.75
2022-08-11T05:54:54.369Z,22.70
2022-08-11T05:56:03.296Z,22.53
2022-08-11T05:56:52.648Z,22.53
2022-08-11T05:57:52.836Z,22.47
2022-08-11T05:58:53.015Z,22.55
2022-08-11T05:59:53.267Z,22.55
2022-08-11T06:00:53.418Z,22.55
2022-08-11T06:01:53.700Z,22.75
2022-08-11T06:02:53.789Z,22.83
2022-08-11T06:03:57.576Z,22.78
2022-08-11T06:04:54.150Z,22.84
2022-08-11T06:05:54.355Z,22.94
2022-08-11T06:06:54.534Z,23.00
2022-08-11T06:07:54.782Z,22.94
2022-08-11T06:08:54.879Z,23.00
2022-08-11T06:09:55.071Z,23.00
2022-08-11T06:10:55.279Z,23.05
2022-08-11T06:11:55.426Z,22.91
2022-08-11T06:12:55.653Z,23.02
2022-08-11T06:13:55.824Z,22.88
2022-08-11T06:14:55.997Z,22.87
2022-08-11T06:15:56.215Z,22.65
2022-08-11T06:16:56.370Z,22.15
2022-08-11T06:17:56.543Z,21.92
2022-08-11T06:18:56.734Z,21.69
2022-08-11T06:19:56.929Z,21.40
2022-08-11T06:20:57.130Z,21.33
2022-08-11T06:21:57.284Z,20.99
2022-08-11T06:22:57.456Z,20.74
2022-08-11T06:23:57.651Z,20.50
2022-08-11T06:24:57.832Z,20.26
2022-08-11T06:25:58.042Z,20.04
2022-08-11T06:27:14.044Z,19.92
2022-08-11T06:27:58.412Z,19.92
2022-08-11T06:28:58.593Z,19.74
2022-08-11T06:29:58.799Z,19.73
2022-08-11T06:30:59.002Z,19.64
2022-08-11T06:31:59.183Z,19.56
2022-08-11T06:32:59.364Z,19.49
2022-08-11T06:33:59.564Z,19.49
2022-08-11T06:34:59.758Z,19.54
2022-08-11T06:35:59.951Z,19.59
2022-08-11T06:37:00.144Z,19.63
2022-08-11T06:38:00.307Z,19.67
2022-08-11T06:39:00.513Z,19.76
2022-08-11T06:40:00.705Z,19.85
2022-08-11T06:41:00.907Z,19.92
2022-08-11T06:42:01.053Z,20.03
2022-08-11T06:43:01.238Z,20.13
2022-08-11T06:44:05.186Z,20.29
2022-08-11T06:45:01.596Z,20.34
2022-08-11T06:46:01.809Z,20.48
2022-08-11T06:47:01.940Z,20.58
2022-08-11T06:48:02.151Z,20.62
2022-08-11T06:49:02.375Z,20.63
2022-08-11T06:50:02.534Z,20.69
2022-08-11T06:51:02.733Z,20.75
2022-08-11T06:52:04.590Z,20.78
2022-08-11T06:53:03.093Z,20.90
2022-08-11T06:54:05.690Z,20.93
2022-08-11T06:55:03.480Z,20.92
2022-08-11T06:56:03.667Z,20.90
2022-08-11T06:57:28.802Z,20.95
2022-08-11T06:58:04.037Z,20.97
2022-08-11T06:59:04.226Z,21.00
2022-08-11T07:00:04.416Z,20.90
2022-08-11T07:01:04.670Z,20.93
2022-08-11T07:02:04.758Z,21.03
2022-08-11T07:03:04.940Z,21.03
2022-08-11T07:04:05.116Z,21.05
2022-08-11T07:05:05.303Z,21.03
2022-08-11T07:06:05.514Z,21.14
2022-08-11T07:07:05.707Z,21.20
2022-08-11T07:08:33.900Z,21.22
2022-08-11T07:09:06.098Z,21.24
2022-08-11T07:10:06.237Z,21.21
2022-08-11T07:11:06.430Z,21.22
2022-08-11T07:12:06.630Z,21.35
2022-08-11T07:13:06.872Z,21.32
2022-08-11T07:14:06.998Z,21.33
2022-08-11T07:15:07.187Z,21.40
2022-08-11T07:16:13.207Z,21.46
2022-08-11T07:17:07.584Z,21.54
2022-08-11T07:18:07.771Z,21.61
2022-08-11T07:19:08.884Z,21.66
2022-08-11T07:20:08.141Z,21.72
2022-08-11T07:21:43.100Z,21.77
2022-08-11T07:22:08.552Z,21.73
2022-08-11T07:23:08.713Z,21.73
2022-08-11T07:24:08.890Z,21.76
2022-08-11T07:25:09.086Z,21.80
2022-08-11T07:26:09.265Z,21.82
2022-08-11T07:27:09.451Z,21.79
2022-08-11T07:28:09.646Z,21.93
2022-08-11T07:29:09.864Z,22.04
2022-08-11T07:30:10.165Z,22.00
2022-08-11T07:31:10.275Z,22.06
2022-08-11T07:32:10.378Z,22.14
2022-08-11T07:33:10.577Z,22.25
2022-08-11T07:34:15.884Z,22.25
2022-08-11T07:35:10.939Z,22.15
2022-08-11T07:36:11.143Z,22.18
2022-08-11T07:37:11.328Z,22.17
2022-08-11T07:38:11.512Z,22.20
2022-08-11T07:39:11.775Z,22.33
2022-08-11T07:40:11.871Z,22.50
2022-08-11T07:41:12.091Z,22.55
2022-08-11T07:42:12.239Z,22.54
2022-08-11T07:43:12.412Z,22.60
2022-08-11T07:44:12.597Z,22.72
2022-08-11T07:45:12.763Z,22.72
2022-08-11T07:46:12.972Z,22.76
2022-08-11T07:47:13.167Z,22.72
2022-08-11T07:48:13.348Z,22.45
2022-08-11T07:49:13.581Z,22.38
2022-08-11T07:50:13.755Z,22.48
2022-08-11T07:51:13.992Z,22.54
2022-08-11T07:52:14.141Z,22.60
2022-08-11T07:53:14.335Z,22.62
2022-08-11T07:54:16.455Z,22.69
2022-08-11T07:55:14.694Z,22.85
2022-08-11T07:56:15.559Z,22.93
2022-08-11T07:57:47.373Z,23.03
2022-08-11T07:58:20.204Z,23.10
2022-08-11T07:59:15.502Z,23.20
2022-08-11T08:00:15.684Z,23.23
2022-08-11T08:01:21.658Z,23.13
2022-08-11T08:02:16.107Z,23.21
2022-08-11T08:03:16.254Z,23.31
2022-08-11T08:04:16.414Z,23.39
2022-08-11T08:05:16.595Z,23.37
2022-08-11T08:06:35.864Z,23.54
2022-08-11T08:07:16.986Z,23.56
2022-08-11T08:08:17.455Z,23.48
2022-08-11T08:09:17.417Z,23.58
2022-08-11T08:10:17.514Z,23.74
2022-08-11T08:11:20.275Z,23.74
2022-08-11T08:12:17.881Z,23.81
2022-08-11T08:13:18.181Z,23.95
2022-08-11T08:14:18.266Z,24.05
2022-08-11T08:15:18.450Z,24.02
2022-08-11T08:16:18.656Z,24.10
2022-08-11T08:17:18.833Z,24.18
2022-08-11T08:18:26.487Z,24.11
2022-08-11T08:19:19.191Z,24.03
2022-08-11T08:20:19.391Z,23.99
2022-08-11T08:21:19.586Z,23.96
2022-08-11T08:22:37.967Z,23.98
2022-08-11T08:23:19.940Z,24.10
2022-08-11T08:24:20.183Z,24.14
2022-08-11T08:25:20.335Z,24.11
2022-08-11T08:26:20.547Z,24.10
2022-08-11T08:27:20.693Z,24.16
2022-08-11T08:28:20.889Z,24.18
2022-08-11T08:29:21.087Z,24.24
2022-08-11T08:30:21.271Z,24.30
2022-08-11T08:31:21.474Z,24.23
2022-08-11T08:32:21.643Z,24.26
2022-08-11T08:33:21.810Z,24.26
2022-08-11T08:34:21.983Z,24.13
2022-08-11T08:35:22.145Z,24.05
2022-08-11T08:36:22.340Z,24.10
2022-08-11T08:37:46.700Z,24.18
2022-08-11T08:38:22.669Z,24.28
2022-08-11T08:39:23.019Z,24.33
2022-08-11T08:40:23.048Z,24.42
2022-08-11T08:41:23.287Z,24.47
2022-08-11T08:42:23.429Z,24.40
2022-08-11T08:43:23.657Z,24.30
2022-08-11T08:44:41.365Z,24.30
2022-08-11T08:45:24.046Z,24.43
2022-08-11T08:46:24.209Z,24.58
2022-08-11T08:47:43.101Z,24.69
2022-08-11T08:48:24.534Z,24.76
2022-08-11T08:49:24.721Z,24.88
2022-08-11T08:50:28.034Z,24.98
2022-08-11T08:51:25.087Z,25.06
2022-08-11T08:52:30.762Z,25.17
2022-08-11T08:53:25.482Z,25.40
2022-08-11T08:54:25.660Z,25.47
2022-08-11T08:55:25.827Z,25.75
2022-08-11T08:56:26.039Z,26.06
2022-08-11T08:57:26.223Z,26.33
2022-08-11T08:58:26.437Z,25.99
2022-08-11T08:59:26.584Z,25.99
2022-08-11T09:00:26.794Z,25.96
2022-08-11T09:01:27.006Z,25.96
2022-08-11T09:02:34.592Z,26.43
2022-08-11T09:04:04.923Z,26.92
2022-08-11T09:04:27.485Z,27.33
2022-08-11T09:05:27.696Z,27.22
2022-08-11T09:06:27.864Z,27.52
2022-08-11T09:07:31.365Z,27.75
2022-08-11T09:08:28.239Z,27.90
2022-08-11T09:09:28.434Z,27.96
2022-08-11T09:10:28.614Z,28.14
2022-08-11T09:11:28.851Z,27.21
2022-08-11T09:12:38.300Z,27.39
2022-08-11T09:13:29.177Z,27.12
2022-08-11T09:14:29.353Z,26.95
2022-08-11T09:15:29.668Z,26.95
2022-08-11T09:16:29.752Z,27.40
2022-08-11T09:17:30.041Z,27.48
2022-08-11T09:18:33.584Z,27.26
2022-08-11T09:19:30.348Z,27.20
2022-08-11T09:20:30.516Z,27.89
2022-08-11T09:21:39.775Z,27.83
2022-08-11T09:22:30.888Z,27.93
2022-08-11T09:24:31.263Z,28.41
2022-08-11T09:25:31.460Z,28.42
2022-08-11T09:26:31.640Z,28.49
2022-08-11T09:27:31.850Z,28.57
2022-08-11T09:28:32.029Z,28.15
2022-08-11T09:29:32.220Z,27.83
2022-08-11T09:30:32.402Z,28.12
2022-08-11T09:31:35.811Z,28.84
2022-08-11T09:32:32.807Z,28.89
2022-08-11T09:33:32.937Z,28.52
2022-08-11T09:34:33.141Z,28.26
2022-08-11T09:35:33.317Z,28.60
2022-08-11T09:36:33.516Z,28.74
2022-08-11T09:37:55.815Z,28.89
2022-08-11T09:38:33.896Z,28.02
2022-08-11T09:39:34.095Z,28.12
2022-08-11T09:40:34.273Z,28.48
2022-08-11T09:42:01.880Z,28.84
2022-08-11T09:42:34.619Z,28.67
2022-08-11T09:43:34.829Z,28.63
2022-08-11T09:44:35.001Z,29.02
2022-08-11T09:45:40.235Z,29.27
2022-08-11T09:46:35.425Z,29.27
2022-08-11T09:47:35.612Z,29.07
2022-08-11T09:48:35.790Z,29.14
2022-08-11T09:49:35.972Z,28.76
2022-08-11T09:50:36.185Z,28.84
2022-08-11T09:51:36.397Z,28.81
2022-08-11T09:52:36.556Z,28.89
2022-08-11T09:53:40.873Z,29.05
2022-08-11T09:54:36.942Z,28.94
2022-08-11T09:55:37.145Z,29.22
2022-08-11T09:56:37.351Z,29.69
2022-08-11T09:57:37.714Z,29.82
2022-08-11T09:58:42.432Z,29.71
2022-08-11T09:59:37.889Z,29.26
2022-08-11T10:00:38.084Z,29.71
2022-08-11T10:01:38.377Z,29.86
2022-08-11T10:02:38.436Z,29.68
2022-08-11T10:03:40.527Z,29.95
2022-08-11T10:04:38.854Z,30.10
2022-08-11T10:05:39.076Z,30.72
2022-08-11T10:06:39.252Z,30.83
2022-08-11T10:07:39.705Z,30.30
2022-08-11T10:08:39.635Z,29.78
2022-08-11T10:09:39.808Z,29.91
2022-08-11T10:10:40.048Z,29.66
2022-08-11T10:11:40.246Z,29.88
2022-08-11T10:12:40.432Z,30.30
2022-08-11T10:14:30.375Z,30.02
2022-08-11T10:14:44.514Z,29.20
2022-08-11T10:15:55.697Z,29.16
2022-08-11T10:16:41.297Z,29.07
2022-08-11T10:17:41.474Z,29.27
2022-08-11T10:18:41.660Z,29.47
2022-08-11T10:19:41.885Z,29.59
2022-08-11T10:20:42.039Z,29.95
2022-08-11T10:21:42.251Z,29.38
2022-08-11T10:22:42.416Z,28.96
2022-08-11T10:24:01.240Z,28.76
2022-08-11T10:25:59.218Z,29.78
2022-08-11T10:27:00.117Z,29.93
2022-08-11T10:28:17.656Z,29.34
2022-08-11T10:29:12.682Z,29.35
2022-08-11T10:29:59.665Z,29.12
2022-08-11T10:30:59.336Z,29.02
2022-08-11T10:32:02.110Z,28.84
2022-08-11T10:33:00.233Z,29.19
2022-08-11T10:34:00.042Z,29.35
2022-08-11T10:35:00.117Z,29.88
2022-08-11T10:36:00.296Z,29.98
2022-08-11T10:37:00.500Z,29.69
2022-08-11T10:38:15.668Z,29.97
2022-08-11T10:39:00.904Z,29.91
2022-08-11T10:40:01.085Z,30.00
2022-08-11T10:41:01.386Z,29.97
2022-08-11T10:42:07.297Z,29.54
2022-08-11T10:43:02.019Z,29.27
2022-08-11T10:44:04.039Z,29.10
2022-08-11T10:45:02.177Z,29.45
2022-08-11T10:46:02.349Z,29.60
2022-08-11T10:47:02.565Z,29.69
2022-08-11T10:48:02.797Z,30.16
2022-08-11T10:49:03.020Z,30.27
2022-08-11T10:50:03.184Z,29.97
2022-08-11T10:51:03.462Z,29.88
2022-08-11T10:52:03.610Z,29.63
2022-08-11T10:53:03.825Z,29.66
2022-08-11T10:54:04.024Z,29.27
2022-08-11T10:55:04.206Z,29.56
2022-08-11T10:56:05.895Z,29.44
2022-08-11T10:57:04.616Z,29.50
2022-08-11T10:58:05.656Z,29.23
2022-08-11T10:59:04.996Z,29.29
2022-08-11T11:00:05.253Z,29.79
2022-08-11T11:01:05.558Z,29.93
2022-08-11T11:02:05.698Z,30.70
2022-08-11T11:03:22.788Z,31.24
2022-08-11T11:04:06.039Z,31.02
2022-08-11T11:05:06.224Z,30.35
2022-08-11T11:06:13.011Z,30.24
2022-08-11T11:07:06.631Z,30.02
2022-08-11T11:08:06.837Z,30.15
2022-08-11T11:09:07.005Z,29.32
2022-08-11T11:10:07.204Z,29.78
2022-08-11T11:11:07.376Z,29.73
2022-08-11T11:12:07.567Z,30.35
2022-08-11T11:13:07.772Z,30.31
2022-08-11T11:14:07.951Z,30.43
2022-08-11T11:15:08.436Z,30.40
2022-08-11T11:16:08.344Z,30.40
2022-08-11T11:17:08.539Z,30.23
2022-08-11T11:18:08.724Z,29.81
2022-08-11T11:19:08.943Z,29.81
2022-08-11T11:20:09.174Z,29.78
2022-08-11T11:21:09.375Z,29.76
2022-08-11T11:22:09.570Z,29.44
2022-08-11T11:23:09.783Z,29.23
2022-08-11T11:24:09.968Z,29.61
2022-08-11T11:25:10.152Z,29.75
2022-08-11T11:26:10.482Z,29.95
2022-08-11T11:27:10.538Z,29.61
2022-08-11T11:28:10.733Z,28.97
2022-08-11T11:29:10.921Z,29.26
2022-08-11T11:30:11.119Z,29.68
2022-08-11T11:31:11.290Z,29.49
2022-08-11T11:32:11.486Z,29.56
2022-08-11T11:33:11.695Z,29.76
2022-08-11T11:34:12.627Z,29.61
2022-08-11T11:35:12.091Z,29.57
2022-08-11T11:36:12.279Z,29.82
2022-08-11T11:37:12.494Z,29.39
2022-08-11T11:38:14.066Z,29.76
2022-08-11T11:39:12.897Z,30.06
2022-08-11T11:40:13.197Z,29.79
2022-08-11T11:41:13.286Z,29.49
2022-08-11T11:42:13.558Z,29.26
2022-08-11T11:43:13.715Z,29.73
2022-08-11T11:44:13.895Z,29.68
2022-08-11T11:45:24.096Z,29.81
2022-08-11T11:46:14.342Z,29.50
2022-08-11T11:47:14.544Z,29.59
2022-08-11T11:48:14.724Z,29.38
2022-08-11T11:49:16.761Z,29.29
2022-08-11T11:50:15.108Z,29.51
2022-08-11T11:51:15.294Z,29.90
2022-08-11T11:52:15.500Z,30.03
2022-08-11T11:53:15.722Z,30.13
2022-08-11T11:54:15.900Z,29.49
2022-08-11T11:55:16.131Z,29.35
2022-08-11T11:56:16.292Z,29.24
2022-08-11T11:57:16.549Z,28.91
2022-08-11T11:58:18.672Z,28.66
2022-08-11T11:59:16.948Z,29.07
2022-08-11T12:00:17.123Z,29.47
2022-08-11T12:01:17.357Z,29.34
2022-08-11T12:02:17.614Z,29.84
2022-08-11T12:03:17.841Z,30.06
2022-08-11T12:04:17.941Z,29.81
2022-08-11T12:05:18.224Z,29.87
2022-08-11T12:06:18.369Z,29.95
2022-08-11T12:07:18.603Z,30.05
2022-08-11T12:08:18.783Z,29.34
2022-08-11T12:09:19.015Z,29.47
2022-08-11T12:10:19.213Z,29.32
2022-08-11T12:11:19.425Z,29.29
2022-08-11T12:12:19.648Z,29.31
2022-08-11T12:13:19.829Z,29.22
2022-08-11T12:14:20.072Z,29.39
2022-08-11T12:16:04.457Z,29.56
2022-08-11T12:16:37.050Z,29.51
2022-08-11T12:17:20.680Z,29.82
2022-08-11T12:18:20.861Z,29.79
2022-08-11T12:19:21.045Z,29.36
2022-08-11T12:20:33.697Z,29.16
2022-08-11T12:21:21.478Z,29.26
2022-08-11T12:22:21.746Z,29.59
2022-08-11T12:23:21.905Z,29.12
2022-08-11T12:24:22.073Z,29.45
2022-08-11T12:25:22.294Z,29.57
2022-08-11T12:26:27.175Z,29.88
2022-08-11T12:27:25.183Z,30.28
2022-08-11T12:28:22.889Z,30.35
2022-08-11T12:29:23.119Z,30.19
2022-08-11T12:30:23.286Z,29.76
2022-08-11T12:31:23.531Z,30.02
2022-08-11T12:32:23.713Z,30.09
2022-08-11T12:33:24.227Z,30.19
2022-08-11T12:34:24.081Z,30.23
2022-08-11T12:35:24.272Z,30.72
2022-08-11T12:36:24.484Z,31.33
2022-08-11T12:37:24.657Z,30.59
2022-08-11T12:38:29.933Z,30.63
2022-08-11T12:40:16.024Z,30.55
2022-08-11T12:41:27.936Z,30.21
2022-08-11T12:42:25.718Z,30.44
2022-08-11T12:43:38.067Z,30.51
2022-08-11T12:44:26.105Z,30.96
2022-08-11T12:45:26.324Z,30.92
2022-08-11T12:46:26.551Z,30.57
2022-08-11T12:47:26.747Z,30.40
2022-08-11T12:48:58.412Z,30.08
2022-08-11T12:49:27.163Z,29.84
2022-08-11T12:50:27.342Z,29.95
2022-08-11T12:51:27.580Z,29.68
2022-08-11T12:52:27.799Z,29.49
2022-08-11T12:53:27.968Z,29.91
2022-08-11T12:54:28.199Z,29.66
2022-08-11T12:55:28.430Z,29.95
2022-08-11T12:56:28.579Z,29.91
2022-08-11T12:57:36.478Z,30.16
2022-08-11T12:58:28.963Z,30.63